Cornucopia Destiny — WDE6386 — position and weather

sailwx.info

Track history (hours):
 
Tides and Currents Weather Stations Pressure Air Temp Water Temp Dewpoint Dewpoint Depression Visibility Wind Speed Wind Dir Waves Ship Positions

Cornucopia Destiny

Owner: Sultan Wholesale LLC, Keyport, NJ. More information available from US FCC via Universal Licensing System and Coast Guard Vessel Documentation Center.

Last reported at 2015-Jun-29 02:33 UTC. Time now 2015-Jun-29 23:06 UTC.
Position N 40°45' W 074°01'.

Length 39 m.

Type: Passenger vessel. MMSI: 367379570.

Date/timePositionNaut miles runAvg speedWind from/ knotsBaromVisibWave heightAir tempDewpointWater temp
2015-Jun-29 02:33N 40°45' W 074°01'0 0.0
2015-Jun-29 01:33N 40°45' W 074°01'3 2.5
2015-Jun-29 00:10N 40°42' W 074°01'3 3.7
2015-Jun-28 23:20N 40°44' W 073°58'2 3.0
2015-Jun-28 22:34N 40°44' W 074°01'1 1.1
2015-Jun-28 21:34N 40°45' W 074°01'0 0.0
2015-Jun-28 20:33N 40°45' W 074°01'0 0.0
2015-Jun-28 19:33N 40°45' W 074°01'0 0.0
2015-Jun-28 18:33N 40°45' W 074°01'0 0.0
2015-Jun-28 17:33N 40°45' W 074°01'2 2.4
2015-Jun-28 16:33N 40°43' W 074°02'0 0.4
2015-Jun-28 15:33N 40°43' W 074°02'2 1.9
2015-Jun-28 14:33N 40°45' W 074°01'0 0.0
2015-Jun-28 10:30N 40°45' W 074°01'1 0.9
2015-Jun-28 09:33N 40°44' W 074°01'2 2.2
2015-Jun-28 08:32N 40°43' W 073°59'2 1.7
2015-Jun-28 07:33N 40°43' W 074°01'2 1.7
2015-Jun-28 06:32N 40°41' W 074°02'3 2.9
2015-Jun-28 05:31N 40°43' W 073°59'2 2.1
2015-Jun-28 04:33N 40°44' W 074°01'1 1.4
2015-Jun-28 03:33N 40°45' W 074°01'1 1.0
2015-Jun-28 02:33N 40°44' W 074°01'3 2.7
2015-Jun-28 01:33N 40°41' W 074°02'2 1.8
2015-Jun-28 00:33N 40°43' W 074°02'2 2.0
2015-Jun-27 23:33N 40°45' W 074°01'0 0.0
2015-Jun-27 22:33N 40°45' W 074°01'0 0.0
2015-Jun-27 21:33N 40°45' W 074°01'0 0.0
2015-Jun-27 20:33N 40°45' W 074°01'0 0.0
2015-Jun-27 19:33N 40°45' W 074°01'0 0.0
2015-Jun-27 18:33N 40°45' W 074°01'0 0.0
2015-Jun-27 17:33N 40°45' W 074°01'0 0.0
2015-Jun-27 16:33N 40°45' W 074°01'0 0.0
2015-Jun-27 15:33N 40°45' W 074°01'0 0.0
2015-Jun-26 20:33N 40°45' W 074°01'0 0.0
2015-Jun-26 19:33N 40°45' W 074°01'0 0.0
2015-Jun-26 18:33N 40°45' W 074°01'0 0.0
2015-Jun-26 16:28N 40°45' W 074°01'0 0.0
2015-Jun-26 15:33N 40°45' W 074°01'0 0.0
2015-Jun-26 03:09N 40°45' W 074°01'0 0.0
2015-Jun-26 02:33N 40°45' W 074°01'0 0.4
2015-Jun-26 01:33N 40°45' W 074°01'3 3.0
2015-Jun-26 00:33N 40°42' W 074°01'1 1.4
2015-Jun-25 23:33N 40°43' W 074°01'2 2.2
2015-Jun-25 22:27N 40°46' W 074°01'0 0.0
2015-Jun-25 21:23N 40°46' W 074°01'0 0.5
2015-Jun-25 20:33N 40°45' W 074°01'0 0.0
2015-Jun-25 19:33N 40°45' W 074°01'0 0.0
2015-Jun-25 18:33N 40°45' W 074°01'0 0.0
2015-Jun-25 17:33N 40°45' W 074°01'0 0.0
2015-Jun-25 16:33N 40°45' W 074°01'0 0.0
2015-Jun-25 15:33N 40°45' W 074°01'0 0.0
2015-Jun-24 23:33N 40°45' W 074°01'0 0.0
2015-Jun-24 22:34N 40°45' W 074°01'0 0.0
2015-Jun-24 17:33N 40°45' W 074°01'0 0.0
2015-Jun-24 08:34N 40°45' W 074°01'0 0.4
2015-Jun-24 07:33N 40°46' W 074°01'4 3.9
2015-Jun-24 06:33N 40°42' W 074°02'3 3.1
2015-Jun-24 05:31N 40°43' W 073°58'3 3.5
2015-Jun-24 04:33N 40°46' W 074°01'1 0.7
2015-Jun-24 03:34N 40°46' W 074°01'0 0.0
2015-Jun-24 02:34N 40°46' W 074°01'0 0.5
2015-Jun-24 01:34N 40°46' W 074°01'1 0.7
2015-Jun-24 00:34N 40°45' W 074°01'4 4.0
2015-Jun-23 23:34N 40°41' W 074°02'4 4.5
2015-Jun-23 22:34N 40°45' W 074°01'0 0.5
2015-Jun-23 21:33N 40°46' W 074°00'0 0.0
2015-Jun-23 20:34N 40°46' W 074°00'1 1.0
2015-Jun-23 19:33N 40°45' W 074°01'0 0.0
2015-Jun-21 19:15N 40°45' W 074°01'0 0.0
2015-Jun-21 18:34N 40°45' W 074°01'0 0.0
2015-Jun-21 05:24N 40°45' W 074°01'0 0.0
2015-Jun-21 04:33N 40°45' W 074°01'1 0.6
2015-Jun-21 03:33N 40°45' W 074°01'4 3.7
2015-Jun-21 02:33N 40°41' W 074°02'4 4.3
2015-Jun-21 01:33N 40°44' W 073°58'2 2.1
2015-Jun-21 00:33N 40°45' W 074°01'0 0.0
2015-Jun-20 23:33N 40°45' W 074°01'0 0.0
2015-Jun-20 22:33N 40°45' W 074°01'1 0.6
2015-Jun-20 21:33N 40°45' W 074°01'0 0.0
2015-Jun-20 20:33N 40°45' W 074°01'0 0.0
2015-Jun-20 19:33N 40°45' W 074°01'0 0.0
2015-Jun-20 18:33N 40°45' W 074°01'0 0.0
2015-Jun-20 17:33N 40°45' W 074°01'0 0.0
2015-Jun-20 16:33N 40°45' W 074°01'0 0.0
2015-Jun-20 15:33N 40°45' W 074°01'0 0.0
2015-Jun-20 08:07N 40°45' W 074°01'0 0.0
2015-Jun-20 07:33N 40°45' W 074°01'2 1.8
2015-Jun-20 06:33N 40°43' W 074°02'2 1.7
2015-Jun-20 05:33N 40°42' W 073°60'2 2.2
2015-Jun-20 04:33N 40°44' W 074°01'1 1.3
2015-Jun-20 03:33N 40°46' W 074°01'0 0.4
2015-Jun-20 02:33N 40°45' W 074°01'0 0.0
2015-Jun-20 01:33N 40°45' W 074°01'0 0.0
2015-Jun-20 00:33N 40°45' W 074°01'0 0.0
2015-Jun-19 23:33N 40°45' W 074°01'0 0.0
2015-Jun-19 22:33N 40°45' W 074°01'0 0.0
2015-Jun-19 21:33N 40°45' W 074°01'0 0.0
2015-Jun-19 20:33N 40°45' W 074°01'0 0.0
2015-Jun-19 19:33N 40°45' W 074°01'0 0.0
2015-Jun-19 18:33N 40°45' W 074°01'  
Track history (hours):
 
Tides and Currents Weather Stations Pressure Air Temp Water Temp Dewpoint Dewpoint Depression Visibility Wind Speed Wind Dir Waves Ship Positions

Cornucopia Destiny

Owner: Sultan Wholesale LLC, Keyport, NJ. More information available from US FCC via Universal Licensing System and Coast Guard Vessel Documentation Center.

Last reported at 2015-Jun-29 02:33 UTC. Time now 2015-Jun-29 23:06 UTC.
Position N 40°45' W 074°01'.

Length 39 m.

Type: Passenger vessel. MMSI: 367379570.

Date/timePositionNaut miles runAvg speedWind from/ knotsBaromVisibWave heightAir tempDewpointWater temp
2015-Jun-29 02:33N 40°45' W 074°01'0 0.0
2015-Jun-29 01:33N 40°45' W 074°01'3 2.5
2015-Jun-29 00:10N 40°42' W 074°01'3 3.7
2015-Jun-28 23:20N 40°44' W 073°58'2 3.0
2015-Jun-28 22:34N 40°44' W 074°01'1 1.1
2015-Jun-28 21:34N 40°45' W 074°01'0 0.0
2015-Jun-28 20:33N 40°45' W 074°01'0 0.0
2015-Jun-28 19:33N 40°45' W 074°01'0 0.0
2015-Jun-28 18:33N 40°45' W 074°01'0 0.0
2015-Jun-28 17:33N 40°45' W 074°01'2 2.4
2015-Jun-28 16:33N 40°43' W 074°02'0 0.4
2015-Jun-28 15:33N 40°43' W 074°02'2 1.9
2015-Jun-28 14:33N 40°45' W 074°01'0 0.0
2015-Jun-28 10:30N 40°45' W 074°01'1 0.9
2015-Jun-28 09:33N 40°44' W 074°01'2 2.2
2015-Jun-28 08:32N 40°43' W 073°59'2 1.7
2015-Jun-28 07:33N 40°43' W 074°01'2 1.7
2015-Jun-28 06:32N 40°41' W 074°02'3 2.9
2015-Jun-28 05:31N 40°43' W 073°59'2 2.1
2015-Jun-28 04:33N 40°44' W 074°01'1 1.4
2015-Jun-28 03:33N 40°45' W 074°01'1 1.0
2015-Jun-28 02:33N 40°44' W 074°01'3 2.7
2015-Jun-28 01:33N 40°41' W 074°02'2 1.8
2015-Jun-28 00:33N 40°43' W 074°02'2 2.0
2015-Jun-27 23:33N 40°45' W 074°01'0 0.0
2015-Jun-27 22:33N 40°45' W 074°01'0 0.0
2015-Jun-27 21:33N 40°45' W 074°01'0 0.0
2015-Jun-27 20:33N 40°45' W 074°01'0 0.0
2015-Jun-27 19:33N 40°45' W 074°01'0 0.0
2015-Jun-27 18:33N 40°45' W 074°01'0 0.0
2015-Jun-27 17:33N 40°45' W 074°01'0 0.0
2015-Jun-27 16:33N 40°45' W 074°01'0 0.0
2015-Jun-27 15:33N 40°45' W 074°01'0 0.0
2015-Jun-26 20:33N 40°45' W 074°01'0 0.0
2015-Jun-26 19:33N 40°45' W 074°01'0 0.0
2015-Jun-26 18:33N 40°45' W 074°01'0 0.0
2015-Jun-26 16:28N 40°45' W 074°01'0 0.0
2015-Jun-26 15:33N 40°45' W 074°01'0 0.0
2015-Jun-26 03:09N 40°45' W 074°01'0 0.0
2015-Jun-26 02:33N 40°45' W 074°01'0 0.4
2015-Jun-26 01:33N 40°45' W 074°01'3 3.0
2015-Jun-26 00:33N 40°42' W 074°01'1 1.4
2015-Jun-25 23:33N 40°43' W 074°01'2 2.2
2015-Jun-25 22:27N 40°46' W 074°01'0 0.0
2015-Jun-25 21:23N 40°46' W 074°01'0 0.5
2015-Jun-25 20:33N 40°45' W 074°01'0 0.0
2015-Jun-25 19:33N 40°45' W 074°01'0 0.0
2015-Jun-25 18:33N 40°45' W 074°01'0 0.0
2015-Jun-25 17:33N 40°45' W 074°01'0 0.0
2015-Jun-25 16:33N 40°45' W 074°01'0 0.0
2015-Jun-25 15:33N 40°45' W 074°01'0 0.0
2015-Jun-24 23:33N 40°45' W 074°01'0 0.0
2015-Jun-24 22:34N 40°45' W 074°01'0 0.0
2015-Jun-24 17:33N 40°45' W 074°01'0 0.0
2015-Jun-24 08:34N 40°45' W 074°01'0 0.4
2015-Jun-24 07:33N 40°46' W 074°01'4 3.9
2015-Jun-24 06:33N 40°42' W 074°02'3 3.1
2015-Jun-24 05:31N 40°43' W 073°58'3 3.5
2015-Jun-24 04:33N 40°46' W 074°01'1 0.7
2015-Jun-24 03:34N 40°46' W 074°01'0 0.0
2015-Jun-24 02:34N 40°46' W 074°01'0 0.5
2015-Jun-24 01:34N 40°46' W 074°01'1 0.7
2015-Jun-24 00:34N 40°45' W 074°01'4 4.0
2015-Jun-23 23:34N 40°41' W 074°02'4 4.5
2015-Jun-23 22:34N 40°45' W 074°01'0 0.5
2015-Jun-23 21:33N 40°46' W 074°00'0 0.0
2015-Jun-23 20:34N 40°46' W 074°00'1 1.0
2015-Jun-23 19:33N 40°45' W 074°01'0 0.0
2015-Jun-21 19:15N 40°45' W 074°01'0 0.0
2015-Jun-21 18:34N 40°45' W 074°01'0 0.0
2015-Jun-21 05:24N 40°45' W 074°01'0 0.0
2015-Jun-21 04:33N 40°45' W 074°01'1 0.6
2015-Jun-21 03:33N 40°45' W 074°01'4 3.7
2015-Jun-21 02:33N 40°41' W 074°02'4 4.3
2015-Jun-21 01:33N 40°44' W 073°58'2 2.1
2015-Jun-21 00:33N 40°45' W 074°01'0 0.0
2015-Jun-20 23:33N 40°45' W 074°01'0 0.0
2015-Jun-20 22:33N 40°45' W 074°01'1 0.6
2015-Jun-20 21:33N 40°45' W 074°01'0 0.0
2015-Jun-20 20:33N 40°45' W 074°01'0 0.0
2015-Jun-20 19:33N 40°45' W 074°01'0 0.0
2015-Jun-20 18:33N 40°45' W 074°01'0 0.0
2015-Jun-20 17:33N 40°45' W 074°01'0 0.0
2015-Jun-20 16:33N 40°45' W 074°01'0 0.0
2015-Jun-20 15:33N 40°45' W 074°01'0 0.0
2015-Jun-20 08:07N 40°45' W 074°01'0 0.0
2015-Jun-20 07:33N 40°45' W 074°01'2 1.8
2015-Jun-20 06:33N 40°43' W 074°02'2 1.7
2015-Jun-20 05:33N 40°42' W 073°60'2 2.2
2015-Jun-20 04:33N 40°44' W 074°01'1 1.3
2015-Jun-20 03:33N 40°46' W 074°01'0 0.4
2015-Jun-20 02:33N 40°45' W 074°01'0 0.0
2015-Jun-20 01:33N 40°45' W 074°01'0 0.0
2015-Jun-20 00:33N 40°45' W 074°01'0 0.0
2015-Jun-19 23:33N 40°45' W 074°01'0 0.0
2015-Jun-19 22:33N 40°45' W 074°01'0 0.0
2015-Jun-19 21:33N 40°45' W 074°01'0 0.0
2015-Jun-19 20:33N 40°45' W 074°01'0 0.0
2015-Jun-19 19:33N 40°45' W 074°01'0 0.0
2015-Jun-19 18:33N 40°45' W 074°01'  

Dump ship's entire track history